createdAt,value
2023-02-14T00:02:24.084Z,-23.92
2023-02-14T00:04:52.834Z,-24.16
2023-02-14T00:07:23.265Z,-23.84
2023-02-14T00:09:51.935Z,-23.87
2023-02-14T00:12:20.469Z,-23.94
2023-02-14T00:15:07.558Z,-24.15
2023-02-14T00:17:36.098Z,-24.16
2023-02-14T00:20:05.142Z,-24.12
2023-02-14T00:22:33.693Z,-24.30
2023-02-14T00:25:02.286Z,-24.13
2023-02-14T00:27:31.252Z,-24.19
2023-02-14T00:30:03.985Z,-24.16
2023-02-14T00:32:32.861Z,-24.26
2023-02-14T00:35:01.316Z,-24.42
2023-02-14T00:37:30.166Z,-24.39
2023-02-14T00:39:58.700Z,-24.54
2023-02-14T00:42:28.050Z,-24.48
2023-02-14T00:44:56.717Z,-24.50
2023-02-14T00:47:25.216Z,-24.54
2023-02-14T00:49:53.918Z,-24.49
2023-02-14T00:52:22.440Z,-24.43
2023-02-14T00:54:50.964Z,-24.64
2023-02-14T00:57:19.525Z,-24.63
2023-02-14T00:59:48.149Z,-24.39
2023-02-14T01:02:16.718Z,-24.62
2023-02-14T01:04:45.658Z,-24.49
2023-02-14T01:07:14.145Z,-24.65
2023-02-14T01:09:43.496Z,-24.48
2023-02-14T01:12:12.063Z,-24.59
2023-02-14T01:14:43.343Z,-24.68
2023-02-14T01:17:12.027Z,-24.61
2023-02-14T01:19:43.038Z,-24.61
2023-02-14T01:22:11.736Z,-24.56
2023-02-14T01:24:40.291Z,-24.92
2023-02-14T01:27:08.872Z,-24.50
2023-02-14T01:29:37.654Z,-25.34
2023-02-14T01:32:06.444Z,-24.76
2023-02-14T01:34:35.214Z,-24.49
2023-02-14T01:37:03.698Z,-24.71
2023-02-14T01:39:32.359Z,-24.59
2023-02-14T01:42:01.860Z,-24.83
2023-02-14T01:44:50.525Z,-24.62
2023-02-14T01:47:22.083Z,-24.79
2023-02-14T01:49:55.158Z,-24.69
2023-02-14T01:52:30.228Z,-24.82
2023-02-14T01:55:11.097Z,-24.99
2023-02-14T01:58:00.272Z,-24.89
2023-02-14T02:00:47.950Z,-24.91
2023-02-14T02:03:20.224Z,-24.80
2023-02-14T02:05:54.567Z,-24.91
2023-02-14T02:08:25.831Z,-24.75
2023-02-14T02:10:54.521Z,-24.76
2023-02-14T02:13:23.793Z,-25.00
2023-02-14T02:16:03.322Z,-24.78
2023-02-14T02:18:55.877Z,-24.76
2023-02-14T02:21:52.181Z,-24.77
2023-02-14T02:24:45.127Z,-24.81
2023-02-14T02:27:19.569Z,-24.72
2023-02-14T02:29:56.924Z,-24.71
2023-02-14T02:32:59.486Z,-24.73
2023-02-14T02:35:58.085Z,-24.71
2023-02-14T02:38:45.717Z,-24.68
2023-02-14T02:41:29.101Z,-25.06
2023-02-14T02:44:02.298Z,-24.64
2023-02-14T02:46:50.402Z,-24.63
2023-02-14T02:50:00.266Z,-24.61
2023-02-14T02:52:57.969Z,-24.60
2023-02-14T02:56:08.625Z,-24.99
2023-02-14T02:58:52.977Z,-24.68
2023-02-14T03:01:27.800Z,-24.83
2023-02-14T03:04:20.180Z,-24.44
2023-02-14T03:06:49.475Z,-24.79
2023-02-14T03:09:21.153Z,-24.30
2023-02-14T03:11:58.690Z,-24.26
2023-02-14T03:15:09.180Z,-24.44
2023-02-14T03:18:14.500Z,-24.14
2023-02-14T03:21:19.440Z,-24.09
2023-02-14T03:24:09.807Z,-24.02
2023-02-14T03:27:02.271Z,-24.17
2023-02-14T03:29:52.284Z,-23.89
2023-02-14T03:32:31.324Z,-23.68
2023-02-14T03:35:14.975Z,-23.56
2023-02-14T03:37:53.055Z,-23.49
2023-02-14T03:40:39.971Z,-23.40
2023-02-14T03:43:13.739Z,-23.53
2023-02-14T03:45:56.823Z,-23.43
2023-02-14T03:48:29.415Z,-23.39
2023-02-14T03:51:00.159Z,-23.33
2023-02-14T03:53:33.730Z,-23.07
2023-02-14T03:56:31.830Z,-23.55
2023-02-14T03:59:08.239Z,-22.84
2023-02-14T04:01:50.065Z,-23.34
2023-02-14T04:04:22.660Z,-22.44
2023-02-14T04:06:51.560Z,-22.27
2023-02-14T04:09:20.286Z,-22.37
2023-02-14T04:11:51.042Z,-22.10
2023-02-14T04:14:19.913Z,-22.26
2023-02-14T04:17:06.618Z,-22.16
2023-02-14T04:19:37.719Z,-22.09
2023-02-14T04:22:06.290Z,-21.92
2023-02-14T04:24:35.012Z,-21.71
2023-02-14T04:27:12.818Z,-21.65
2023-02-14T04:29:41.402Z,-21.59
2023-02-14T04:32:13.660Z,-21.60
2023-02-14T04:34:45.048Z,-21.59
2023-02-14T04:37:14.840Z,-21.42
2023-02-14T04:39:43.559Z,-22.04
2023-02-14T04:42:12.323Z,-21.47
2023-02-14T04:44:40.975Z,-21.46
2023-02-14T04:47:10.411Z,-21.39
2023-02-14T04:49:39.114Z,-21.99
2023-02-14T04:52:08.203Z,-21.24
2023-02-14T04:54:36.679Z,-21.50
2023-02-14T04:57:05.325Z,-21.32
2023-02-14T04:59:33.994Z,-21.06
2023-02-14T05:02:02.778Z,-21.12
2023-02-14T05:04:31.647Z,-21.17
2023-02-14T05:07:02.805Z,-21.21
2023-02-14T05:09:31.529Z,-21.16
2023-02-14T05:12:02.295Z,-21.02
2023-02-14T05:14:31.019Z,-20.87
2023-02-14T05:16:59.616Z,-20.92
2023-02-14T05:19:31.225Z,-20.91
2023-02-14T05:21:59.924Z,-20.48
2023-02-14T05:24:28.558Z,-20.46
2023-02-14T05:26:57.110Z,-20.23
2023-02-14T05:29:25.931Z,-19.84
2023-02-14T05:31:54.737Z,-19.94
2023-02-14T05:34:23.409Z,-19.71
2023-02-14T05:36:52.009Z,-19.39
2023-02-14T05:39:20.783Z,-19.27
2023-02-14T05:41:51.781Z,-19.71
2023-02-14T05:44:20.361Z,-19.10
2023-02-14T05:46:49.036Z,-19.06
2023-02-14T05:49:17.606Z,-18.97
2023-02-14T05:51:48.930Z,-19.12
2023-02-14T05:54:17.529Z,-18.73
2023-02-14T05:56:46.210Z,-18.25
2023-02-14T05:59:15.362Z,-18.26
2023-02-14T06:01:44.043Z,-18.21
2023-02-14T06:04:12.869Z,-18.19
2023-02-14T06:06:41.610Z,-17.97
2023-02-14T06:09:10.164Z,-18.14
2023-02-14T06:11:38.690Z,-18.16
2023-02-14T06:14:07.485Z,-18.15
2023-02-14T06:16:36.366Z,-18.01
2023-02-14T06:19:04.972Z,-18.06
2023-02-14T06:21:33.685Z,-18.09
2023-02-14T06:24:02.230Z,-18.91
2023-02-14T06:26:31.329Z,-17.68
2023-02-14T06:29:00.272Z,-17.58
2023-02-14T06:31:29.203Z,-17.49
2023-02-14T06:33:57.970Z,-17.30
2023-02-14T06:36:27.885Z,-17.00
2023-02-14T06:38:57.475Z,-17.04
2023-02-14T06:41:26.201Z,-16.87
2023-02-14T06:43:55.087Z,-17.14
2023-02-14T06:46:25.073Z,-17.14
2023-02-14T06:48:53.807Z,-16.51
2023-02-14T06:51:22.609Z,-16.32
2023-02-14T06:53:51.396Z,-16.28
2023-02-14T06:56:21.248Z,-15.88
2023-02-14T06:58:50.042Z,-16.00
2023-02-14T07:01:18.638Z,-16.13
2023-02-14T07:03:47.482Z,-16.05
2023-02-14T07:06:16.149Z,-15.54
2023-02-14T07:08:44.803Z,-15.27
2023-02-14T07:11:16.542Z,-15.00
2023-02-14T07:13:45.148Z,-14.86
2023-02-14T07:16:13.751Z,-14.83
2023-02-14T07:18:42.625Z,-14.64
2023-02-14T07:21:11.304Z,-14.73
2023-02-14T07:23:41.200Z,-14.31
2023-02-14T07:26:09.987Z,-14.30
2023-02-14T07:28:38.724Z,-14.06
2023-02-14T07:31:07.723Z,-13.94
2023-02-14T07:33:36.462Z,-13.48
2023-02-14T07:36:07.905Z,-13.56
2023-02-14T07:38:36.927Z,-13.97
2023-02-14T07:41:05.910Z,-13.87
2023-02-14T07:43:37.741Z,-13.85
2023-02-14T07:46:07.340Z,-13.38
2023-02-14T07:48:36.172Z,-13.32
2023-02-14T07:51:05.090Z,-13.41
2023-02-14T07:53:33.812Z,-13.37
2023-02-14T07:56:02.646Z,-13.47
2023-02-14T07:58:31.528Z,-13.67
2023-02-14T08:01:00.989Z,-13.60
2023-02-14T08:03:30.024Z,-13.68
2023-02-14T08:05:58.724Z,-13.64
2023-02-14T08:08:29.272Z,-13.46
2023-02-14T08:10:58.584Z,-13.60
2023-02-14T08:13:27.800Z,-13.55
2023-02-14T08:16:05.583Z,-13.57
2023-02-14T08:18:37.643Z,-13.60
2023-02-14T08:21:08.782Z,-13.59
2023-02-14T08:23:38.821Z,-13.57
2023-02-14T08:26:07.772Z,-13.55
2023-02-14T08:28:36.449Z,-13.95
2023-02-14T08:31:05.970Z,-14.16
2023-02-14T08:33:34.894Z,-14.33
2023-02-14T08:36:03.555Z,-14.36
2023-02-14T08:38:32.198Z,-14.43
2023-02-14T08:41:05.805Z,-14.30
2023-02-14T08:43:36.559Z,-14.44
2023-02-14T08:46:05.469Z,-14.42
2023-02-14T08:48:39.183Z,-14.47
2023-02-14T08:51:13.176Z,-14.55
2023-02-14T08:53:43.006Z,-14.74
2023-02-14T08:56:16.177Z,-14.60
2023-02-14T08:58:44.932Z,-14.40
2023-02-14T09:01:17.521Z,-14.45
2023-02-14T09:03:46.375Z,-14.66
2023-02-14T09:06:18.042Z,-14.67
2023-02-14T09:08:47.382Z,-14.74
2023-02-14T09:11:19.736Z,-14.70
2023-02-14T09:13:49.104Z,-14.77
2023-02-14T09:16:19.168Z,-14.77
2023-02-14T09:18:49.146Z,-14.80
2023-02-14T09:21:21.197Z,-14.73
2023-02-14T09:23:49.943Z,-15.24
2023-02-14T09:26:22.221Z,-14.85
2023-02-14T09:28:51.611Z,-14.71
2023-02-14T09:31:23.467Z,-14.77
2023-02-14T09:34:11.264Z,-14.73
2023-02-14T09:36:39.901Z,-14.94
2023-02-14T09:39:11.729Z,-14.70
2023-02-14T09:42:15.848Z,-14.94
2023-02-14T09:45:00.301Z,-15.04
2023-02-14T09:47:42.973Z,-14.75
2023-02-14T09:50:32.224Z,-14.81
2023-02-14T09:53:14.928Z,-15.42
2023-02-14T09:55:58.602Z,-14.91
2023-02-14T09:58:32.582Z,-14.79
2023-02-14T10:01:08.592Z,-14.85
2023-02-14T10:03:59.100Z,-14.82
2023-02-14T10:06:51.581Z,-14.87
2023-02-14T10:09:35.360Z,-14.93
2023-02-14T10:12:06.182Z,-15.20
2023-02-14T10:14:41.429Z,-15.23
2023-02-14T10:17:40.723Z,-15.30
2023-02-14T10:20:25.460Z,-15.20
2023-02-14T10:23:05.896Z,-15.32
2023-02-14T10:25:47.894Z,-15.26
2023-02-14T10:28:31.465Z,-15.33
2023-02-14T10:31:08.564Z,-15.40
2023-02-14T10:33:40.220Z,-15.47
2023-02-14T10:36:46.332Z,-15.44
2023-02-14T10:39:30.939Z,-15.72
2023-02-14T10:42:02.256Z,-15.63
2023-02-14T10:44:48.818Z,-15.88
2023-02-14T10:47:23.372Z,-15.66
2023-02-14T10:50:10.137Z,-15.67
2023-02-14T10:53:05.802Z,-16.13
2023-02-14T10:55:40.922Z,-15.74
2023-02-14T10:58:16.356Z,-16.24
2023-02-14T11:00:57.903Z,-15.89
2023-02-14T11:03:28.354Z,-16.09
2023-02-14T11:05:57.464Z,-16.09
2023-02-14T11:08:46.933Z,-16.06
2023-02-14T11:11:31.187Z,-16.37
2023-02-14T11:14:33.181Z,-16.33
2023-02-14T11:17:27.702Z,-17.20
2023-02-14T11:20:10.222Z,-16.86
2023-02-14T11:22:39.345Z,-16.87
2023-02-14T11:25:23.641Z,-17.12
2023-02-14T11:28:02.798Z,-17.21
2023-02-14T11:30:41.866Z,-17.36
2023-02-14T11:33:35.910Z,-17.57
2023-02-14T11:36:06.743Z,-17.82
2023-02-14T11:38:39.785Z,-17.77
2023-02-14T11:41:12.760Z,-17.97
2023-02-14T11:43:44.729Z,-18.07
2023-02-14T11:46:27.491Z,-18.78
2023-02-14T11:49:05.701Z,-18.35
2023-02-14T11:51:42.562Z,-18.24
2023-02-14T11:54:35.411Z,-18.69
2023-02-14T11:57:06.610Z,-18.49
2023-02-14T12:00:12.837Z,-18.55
2023-02-14T12:02:47.048Z,-18.86
2023-02-14T12:05:29.257Z,-18.73
2023-02-14T12:08:01.278Z,-18.94
2023-02-14T12:10:32.561Z,-19.10
2023-02-14T12:13:09.113Z,-19.22
2023-02-14T12:15:45.162Z,-19.24
2023-02-14T12:18:22.791Z,-19.28
2023-02-14T12:20:57.753Z,-19.38
2023-02-14T12:23:33.935Z,-19.72
2023-02-14T12:26:07.517Z,-19.55
2023-02-14T12:28:45.996Z,-19.83
2023-02-14T12:31:15.092Z,-19.65
2023-02-14T12:33:46.224Z,-19.91
2023-02-14T12:36:37.072Z,-19.90
2023-02-14T12:39:33.659Z,-20.01
2023-02-14T12:42:18.370Z,-20.04
2023-02-14T12:44:58.882Z,-20.08
2023-02-14T12:48:02.863Z,-20.41
2023-02-14T12:50:40.479Z,-20.23
2023-02-14T12:53:24.162Z,-20.34
2023-02-14T12:56:11.895Z,-21.30
2023-02-14T12:58:57.714Z,-20.84
2023-02-14T13:01:40.210Z,-20.75
2023-02-14T13:04:37.453Z,-20.87
2023-02-14T13:07:09.995Z,-21.63
2023-02-14T13:10:20.253Z,-21.10
2023-02-14T13:13:04.759Z,-21.05
2023-02-14T13:15:59.589Z,-21.04
2023-02-14T13:19:05.271Z,-21.11
2023-02-14T13:21:38.235Z,-21.24
2023-02-14T13:24:25.577Z,-21.62
2023-02-14T13:26:59.950Z,-21.35
2023-02-14T13:29:34.269Z,-21.40
2023-02-14T13:32:04.294Z,-21.42
2023-02-14T13:34:32.868Z,-21.32
2023-02-14T13:37:05.177Z,-21.42
2023-02-14T13:39:44.875Z,-21.64
2023-02-14T13:42:14.332Z,-21.63
2023-02-14T13:44:48.350Z,-21.65
2023-02-14T13:47:37.369Z,-21.66
2023-02-14T13:50:06.714Z,-21.94
2023-02-14T13:52:47.994Z,-21.88
2023-02-14T13:55:26.054Z,-21.85
2023-02-14T13:58:18.089Z,-21.71
2023-02-14T14:00:52.755Z,-22.01
2023-02-14T14:03:30.315Z,-21.79
2023-02-14T14:06:11.839Z,-22.02
2023-02-14T14:08:49.302Z,-22.01
2023-02-14T14:11:23.828Z,-21.80
2023-02-14T14:14:03.852Z,-21.85
2023-02-14T14:16:35.957Z,-21.90
2023-02-14T14:19:24.508Z,-21.73
2023-02-14T14:22:05.517Z,-21.76
2023-02-14T14:24:36.971Z,-21.96
2023-02-14T14:27:18.824Z,-21.72
2023-02-14T14:29:54.807Z,-21.63
2023-02-14T14:32:30.986Z,-21.94
2023-02-14T14:35:03.588Z,-21.99
2023-02-14T14:37:35.231Z,-21.86
2023-02-14T14:40:10.364Z,-21.82
2023-02-14T14:42:41.883Z,-21.79
2023-02-14T14:45:21.647Z,-22.52
2023-02-14T14:47:54.345Z,-22.02
2023-02-14T14:50:30.844Z,-21.93
2023-02-14T14:53:03.049Z,-22.13
2023-02-14T14:55:46.006Z,-22.27
2023-02-14T14:58:37.477Z,-22.12
2023-02-14T15:01:11.631Z,-22.32
2023-02-14T15:03:41.312Z,-22.85
2023-02-14T15:06:21.701Z,-22.44
2023-02-14T15:08:52.184Z,-22.22
2023-02-14T15:11:48.321Z,-22.23
2023-02-14T15:14:23.743Z,-22.39
2023-02-14T15:17:01.563Z,-22.17
2023-02-14T15:19:39.404Z,-22.45
2023-02-14T15:22:19.645Z,-22.22
2023-02-14T15:24:50.330Z,-22.36
2023-02-14T15:27:28.310Z,-22.70
2023-02-14T15:30:04.463Z,-22.54
2023-02-14T15:32:36.286Z,-22.58
2023-02-14T15:35:07.813Z,-22.56
2023-02-14T15:37:37.726Z,-22.70
2023-02-14T15:40:09.312Z,-22.76
2023-02-14T15:42:44.688Z,-22.62
2023-02-14T15:45:31.439Z,-22.73
2023-02-14T15:48:25.311Z,-22.68
2023-02-14T15:50:59.838Z,-22.78
2023-02-14T15:53:43.820Z,-22.61
2023-02-14T15:56:31.417Z,-22.71
2023-02-14T15:59:08.732Z,-22.84
2023-02-14T16:01:38.795Z,-22.92
2023-02-14T16:04:09.296Z,-22.67
2023-02-14T16:06:45.332Z,-22.87
2023-02-14T16:09:29.271Z,-22.65
2023-02-14T16:12:00.755Z,-22.95
2023-02-14T16:14:37.057Z,-22.71
2023-02-14T16:17:14.660Z,-23.07
2023-02-14T16:19:47.566Z,-23.09
2023-02-14T16:22:32.748Z,-22.92
2023-02-14T16:25:04.246Z,-22.87
2023-02-14T16:27:32.746Z,-23.00
2023-02-14T16:30:01.455Z,-23.10
2023-02-14T16:32:31.404Z,-22.83
2023-02-14T16:35:01.596Z,-23.08
2023-02-14T16:37:34.022Z,-23.08
2023-02-14T16:40:03.194Z,-23.08
2023-02-14T16:42:34.668Z,-22.94
2023-02-14T16:45:03.872Z,-23.20
2023-02-14T16:47:32.731Z,-22.97
2023-02-14T16:50:01.959Z,-23.19
2023-02-14T16:52:31.464Z,-23.01
2023-02-14T16:55:00.192Z,-22.92
2023-02-14T16:57:33.284Z,-23.10
2023-02-14T17:00:02.152Z,-23.21
2023-02-14T17:02:30.684Z,-23.81
2023-02-14T17:04:59.570Z,-23.08
2023-02-14T17:07:32.166Z,-23.14
2023-02-14T17:10:07.150Z,-23.34
2023-02-14T17:12:42.576Z,-23.34
2023-02-14T17:15:17.062Z,-23.13
2023-02-14T17:17:48.134Z,-23.31
2023-02-14T17:20:17.121Z,-23.28
2023-02-14T17:22:45.941Z,-23.14
2023-02-14T17:25:15.073Z,-23.29
2023-02-14T17:27:45.266Z,-23.09
2023-02-14T17:30:15.419Z,-23.28
2023-02-14T17:32:44.550Z,-23.04
2023-02-14T17:35:15.074Z,-23.44
2023-02-14T17:37:43.671Z,-23.04
2023-02-14T17:40:15.219Z,-22.98
2023-02-14T17:42:43.946Z,-23.32
2023-02-14T17:45:13.564Z,-23.23
2023-02-14T17:47:47.990Z,-23.24
2023-02-14T17:50:20.578Z,-23.27
2023-02-14T17:52:50.798Z,-23.80
2023-02-14T17:55:19.862Z,-22.99
2023-02-14T17:57:53.553Z,-23.30
2023-02-14T18:00:22.375Z,-23.01
2023-02-14T18:02:51.272Z,-23.12
2023-02-14T18:05:19.773Z,-23.27
2023-02-14T18:07:48.523Z,-23.94
2023-02-14T18:10:17.374Z,-23.19
2023-02-14T18:12:46.084Z,-23.18
2023-02-14T18:15:15.440Z,-23.37
2023-02-14T18:17:44.282Z,-23.21
2023-02-14T18:20:13.181Z,-23.45
2023-02-14T18:22:41.688Z,-23.62
2023-02-14T18:25:11.014Z,-23.66
2023-02-14T18:27:40.164Z,-23.86
2023-02-14T18:30:09.605Z,-23.81
2023-02-14T18:32:38.366Z,-23.71
2023-02-14T18:35:07.231Z,-23.71
2023-02-14T18:37:35.756Z,-23.65
2023-02-14T18:40:04.317Z,-23.92
2023-02-14T18:42:33.318Z,-24.04
2023-02-14T18:45:02.291Z,-23.97
2023-02-14T18:47:30.975Z,-23.86
2023-02-14T18:49:59.264Z,-23.90
2023-02-14T18:52:27.872Z,-24.02
2023-02-14T18:54:59.175Z,-24.01
2023-02-14T18:57:27.776Z,-24.11
2023-02-14T18:59:59.609Z,-24.08
2023-02-14T19:02:28.349Z,-24.17
2023-02-14T19:04:59.898Z,-24.77
2023-02-14T19:07:28.860Z,-24.16
2023-02-14T19:09:57.742Z,-24.24
2023-02-14T19:12:26.266Z,-24.29
2023-02-14T19:14:55.948Z,-24.23
2023-02-14T19:17:25.083Z,-24.39
2023-02-14T19:19:54.362Z,-24.35
2023-02-14T19:22:23.561Z,-24.16
2023-02-14T19:24:54.393Z,-24.15
2023-02-14T19:27:24.604Z,-24.50
2023-02-14T19:29:53.285Z,-24.19
2023-02-14T19:32:22.051Z,-24.52
2023-02-14T19:34:51.332Z,-24.45
2023-02-14T19:37:19.993Z,-24.28
2023-02-14T19:39:48.904Z,-24.22
2023-02-14T19:42:17.364Z,-24.31
2023-02-14T19:44:47.416Z,-25.02
2023-02-14T19:47:29.026Z,-24.25
2023-02-14T19:50:02.561Z,-24.37
2023-02-14T19:52:31.337Z,-24.36
2023-02-14T19:55:03.798Z,-24.42
2023-02-14T19:57:32.497Z,-24.61
2023-02-14T20:00:01.324Z,-24.54
2023-02-14T20:02:46.422Z,-24.69
2023-02-14T20:05:20.178Z,-24.44
2023-02-14T20:07:49.982Z,-24.37
2023-02-14T20:10:18.981Z,-25.22
2023-02-14T20:12:47.855Z,-24.65
2023-02-14T20:15:16.735Z,-24.52
2023-02-14T20:17:45.941Z,-24.48
2023-02-14T20:20:16.767Z,-24.58
2023-02-14T20:22:45.561Z,-24.66
2023-02-14T20:25:14.044Z,-24.63
2023-02-14T20:27:42.966Z,-25.48
2023-02-14T20:30:12.298Z,-24.94
2023-02-14T20:32:41.494Z,-25.56
2023-02-14T20:35:10.225Z,-24.78
2023-02-14T20:37:39.121Z,-24.82
2023-02-14T20:40:10.581Z,-25.00
2023-02-14T20:42:41.504Z,-25.10
2023-02-14T20:45:10.152Z,-25.23
2023-02-14T20:47:38.759Z,-24.91
2023-02-14T20:50:08.301Z,-25.75
2023-02-14T20:52:37.770Z,-25.13
2023-02-14T20:55:07.263Z,-25.10
2023-02-14T20:57:35.984Z,-25.06
2023-02-14T21:00:05.647Z,-25.06
2023-02-14T21:02:34.406Z,-24.88
2023-02-14T21:05:03.244Z,-25.02
2023-02-14T21:07:31.929Z,-25.16
2023-02-14T21:10:03.184Z,-25.13
2023-02-14T21:12:31.722Z,-25.19
2023-02-14T21:15:02.759Z,-25.16
2023-02-14T21:17:31.493Z,-24.83
2023-02-14T21:20:00.325Z,-24.93
2023-02-14T21:22:28.926Z,-25.68
2023-02-14T21:24:57.591Z,-24.92
2023-02-14T21:27:26.187Z,-25.01
2023-02-14T21:29:55.151Z,-25.68
2023-02-14T21:32:29.209Z,-25.10
2023-02-14T21:34:57.876Z,-24.97
2023-02-14T21:37:26.429Z,-25.00
2023-02-14T21:39:55.213Z,-25.17
2023-02-14T21:42:23.850Z,-25.18
2023-02-14T21:45:11.076Z,-25.11
2023-02-14T21:47:40.644Z,-25.05
2023-02-14T21:50:29.630Z,-25.23
2023-02-14T21:52:58.431Z,-24.98
2023-02-14T21:55:27.082Z,-25.21
2023-02-14T21:57:55.610Z,-25.22
2023-02-14T22:00:24.168Z,-25.27
2023-02-14T22:02:53.335Z,-25.16
2023-02-14T22:05:22.094Z,-24.99
2023-02-14T22:07:53.094Z,-25.13
2023-02-14T22:10:21.688Z,-25.02
2023-02-14T22:12:50.472Z,-25.37
2023-02-14T22:15:19.060Z,-25.18
2023-02-14T22:17:47.828Z,-25.17
2023-02-14T22:20:17.491Z,-25.13
2023-02-14T22:22:49.129Z,-25.01
2023-02-14T22:25:20.468Z,-25.02
2023-02-14T22:27:49.109Z,-25.15
2023-02-14T22:30:18.279Z,-25.39
2023-02-14T22:32:47.446Z,-25.26
2023-02-14T22:35:16.127Z,-25.22
2023-02-14T22:37:44.784Z,-25.19
2023-02-14T22:40:16.684Z,-25.20
2023-02-14T22:42:45.563Z,-25.45
2023-02-14T22:45:14.660Z,-25.27
2023-02-14T22:47:43.400Z,-25.18
2023-02-14T22:50:12.353Z,-25.36
2023-02-14T22:52:41.420Z,-25.21
2023-02-14T22:55:10.937Z,-25.32
2023-02-14T22:57:40.041Z,-25.20
2023-02-14T23:00:12.309Z,-25.43
2023-02-14T23:02:40.917Z,-25.39
2023-02-14T23:05:09.992Z,-25.41
2023-02-14T23:07:38.656Z,-25.41
2023-02-14T23:10:08.974Z,-25.34
2023-02-14T23:12:56.334Z,-25.40
2023-02-14T23:15:43.516Z,-26.05
2023-02-14T23:18:32.617Z,-25.23
2023-02-14T23:21:19.494Z,-25.54
2023-02-14T23:23:48.459Z,-25.41
2023-02-14T23:26:21.075Z,-25.26
2023-02-14T23:28:50.130Z,-25.18
2023-02-14T23:31:19.641Z,-25.10
2023-02-14T23:33:52.765Z,-25.06
2023-02-14T23:36:24.154Z,-25.68
2023-02-14T23:38:52.696Z,-24.92
2023-02-14T23:41:40.414Z,-24.96
2023-02-14T23:44:09.255Z,-24.92
2023-02-14T23:46:38.300Z,-24.93
2023-02-14T23:49:07.420Z,-24.73
2023-02-14T23:51:37.217Z,-24.84
2023-02-14T23:54:06.556Z,-24.99
2023-02-14T23:56:35.578Z,-24.93
2023-02-14T23:59:05.996Z,-25.03
